Time;durP1;ratioP1;P1;durP2;ratioP2;P2;SDS_P1;SDS_P2;PMS_P1;PMS_P2;Temp;Humidity;BMP_temperature;BMP_pressure;BME280_temperature;BME280_humidity;BME280_pressure;Samples;Min_cycle;Max_cycle;Signal;HPM_P1;HPM_P2
2021/05/29 00:01:16;;;;;;;11.75;8.00;;;;;;;7.81;100.00;101412.19;3538569;40;20512;-57
2021/05/29 00:03:44;;;;;;;10.38;8.13;;;;;;;7.61;100.00;101403.53;3532904;40;20113;-56
2021/05/29 00:06:11;;;;;;;13.63;9.32;;;;;;;7.51;100.00;101409.00;3531525;40;20174;-52
2021/05/29 00:08:38;;;;;;;11.73;9.07;;;;;;;7.43;100.00;101414.50;3532061;40;20055;-56
2021/05/29 00:11:05;;;;;;;10.75;8.88;;;;;;;7.40;100.00;101411.03;3531657;40;20305;-50
2021/05/29 00:13:33;;;;;;;11.95;9.40;;;;;;;7.38;100.00;101417.69;3531303;40;20059;-58
2021/05/29 00:16:00;;;;;;;10.95;8.52;;;;;;;7.38;100.00;101412.59;3531633;40;20768;-52
2021/05/29 00:18:27;;;;;;;10.10;8.93;;;;;;;7.70;100.00;101423.50;3531436;40;20066;-51
2021/05/29 00:20:55;;;;;;;12.07;9.13;;;;;;;8.10;100.00;101422.91;3531485;40;20058;-54
2021/05/29 00:23:22;;;;;;;10.18;8.35;;;;;;;7.69;100.00;101421.78;3531516;40;20516;-56
2021/05/29 00:25:49;;;;;;;9.63;8.57;;;;;;;7.43;100.00;101417.06;3531436;40;20047;-53
2021/05/29 00:28:17;;;;;;;13.15;9.30;;;;;;;7.34;100.00;101423.44;3531598;40;20087;-54
2021/05/29 00:30:45;;;;;;;11.63;8.95;;;;;;;7.32;100.00;101422.50;3531086;40;20053;-54
2021/05/29 00:33:12;;;;;;;11.23;8.60;;;;;;;7.25;100.00;101425.50;3531633;40;20066;-49
2021/05/29 00:35:40;;;;;;;12.55;9.02;;;;;;;7.24;100.00;101422.91;3531858;40;20086;-51
2021/05/29 00:38:07;;;;;;;12.75;9.25;;;;;;;7.11;100.00;101422.25;3532182;40;20059;-54
2021/05/29 00:40:35;;;;;;;12.13;9.15;;;;;;;7.15;100.00;101419.06;3531510;40;20054;-60
2021/05/29 00:43:03;;;;;;;11.63;9.35;;;;;;;7.22;100.00;101420.28;3531596;40;20062;-49
2021/05/29 00:45:30;;;;;;;11.98;9.70;;;;;;;7.11;100.00;101422.25;3531461;40;20091;-55
2021/05/29 00:48:00;;;;;;;11.32;9.02;;;;;;;7.14;100.00;101429.19;3528816;40;20674;-54
2021/05/29 00:50:28;;;;;;;15.80;9.60;;;;;;;7.18;100.00;101425.16;3531258;40;20066;-52
2021/05/29 00:52:55;;;;;;;12.10;8.82;;;;;;;7.36;100.00;101426.06;3531234;40;20060;-56
2021/05/29 00:55:23;;;;;;;10.65;9.05;;;;;;;7.17;100.00;101420.84;3531451;40;20456;-56
2021/05/29 00:57:51;;;;;;;13.00;9.32;;;;;;;7.52;100.00;101427.69;3531319;40;20083;-53
2021/05/29 01:00:23;;;;;;;12.75;8.98;;;;;;;7.53;100.00;101427.78;3531419;40;20126;-52
2021/05/29 01:02:51;;;;;;;10.52;8.50;;;;;;;7.37;100.00;101421.03;3531182;40;20066;-54
2021/05/29 01:05:20;;;;;;;11.88;8.88;;;;;;;7.04;100.00;101422.75;3531251;40;20073;-50
2021/05/29 01:07:49;;;;;;;12.00;9.55;;;;;;;6.86;100.00;101416.72;3531147;40;20066;-54
2021/05/29 01:10:17;;;;;;;14.70;10.50;;;;;;;6.79;100.00;101417.16;3531368;40;20059;-56
2021/05/29 01:12:45;;;;;;;13.90;9.80;;;;;;;6.92;100.00;101414.47;3530929;40;20074;-51
2021/05/29 01:15:13;;;;;;;15.50;10.13;;;;;;;7.17;100.00;101414.09;3531106;40;20066;-54
2021/05/29 01:17:40;;;;;;;14.38;9.98;;;;;;;7.14;100.00;101417.34;3531612;40;20072;-51
2021/05/29 01:20:08;;;;;;;12.30;9.35;;;;;;;7.11;100.00;101408.66;3533009;40;20043;-55
2021/05/29 01:22:43;;;;;;;14.85;9.18;;;;;;;7.05;100.00;101416.88;3532806;40;20065;-52
2021/05/29 01:25:19;;;;;;;12.40;9.90;;;;;;;7.18;100.00;101413.28;3532717;40;20132;-52
2021/05/29 01:27:53;;;;;;;12.60;8.82;;;;;;;7.77;100.00;101417.94;3532441;40;20059;-54
2021/05/29 01:30:21;;;;;;;14.90;9.95;;;;;;;7.36;100.00;101413.34;3533055;40;20074;-52
2021/05/29 01:32:48;;;;;;;12.82;9.25;;;;;;;7.75;100.00;101418.63;3532992;40;20080;-51
2021/05/29 01:35:15;;;;;;;10.38;7.65;;;;;;;7.57;100.00;101413.50;3532995;40;20320;-54
2021/05/29 01:37:43;;;;;;;9.95;7.88;;;;;;;7.35;100.00;101415.00;3532568;40;20072;-56
2021/05/29 01:40:11;;;;;;;11.57;7.88;;;;;;;7.85;100.00;101418.28;3532972;40;20055;-52
2021/05/29 01:42:39;;;;;;;12.80;8.18;;;;;;;7.45;100.00;101418.03;3532723;40;20094;-53
2021/05/29 01:45:08;;;;;;;9.85;8.35;;;;;;;7.01;100.00;101422.59;3532652;40;20050;-49
2021/05/29 01:47:42;;;;;;;11.32;8.50;;;;;;;6.95;100.00;101416.31;3532612;40;20114;-50
2021/05/29 01:50:11;;;;;;;12.45;8.75;;;;;;;7.00;100.00;101415.75;3532839;40;20483;-56
2021/05/29 01:52:53;;;;;;;11.05;8.25;;;;;;;6.71;100.00;101419.34;3532675;40;20043;-51
2021/05/29 01:55:29;;;;;;;10.95;8.77;;;;;;;6.66;100.00;101427.53;3532745;40;20087;-51
2021/05/29 01:57:57;;;;;;;11.73;8.90;;;;;;;7.11;100.00;101431.56;3529456;40;20039;-54
2021/05/29 02:00:27;;;;;;;10.40;7.70;;;;;;;7.00;100.00;101431.03;3532372;40;20047;-56
2021/05/29 02:02:55;;;;;;;12.25;7.97;;;;;;;7.43;100.00;101424.69;3528969;40;20090;-55
2021/05/29 02:05:25;;;;;;;12.88;8.30;;;;;;;6.93;100.00;101421.31;3532582;40;20106;-53
2021/05/29 02:07:53;;;;;;;9.50;8.05;;;;;;;7.11;100.00;101421.38;3532274;40;20053;-56
2021/05/29 02:10:23;;;;;;;9.55;8.02;;;;;;;6.69;100.00;101428.53;3532378;40;20066;-56
2021/05/29 02:12:54;;;;;;;12.00;8.80;;;;;;;6.56;100.00;101423.59;3532393;40;20054;-52
2021/05/29 02:15:25;;;;;;;10.63;7.75;;;;;;;7.25;100.00;101429.72;3532359;40;20078;-52
2021/05/29 02:17:54;;;;;;;10.50;7.95;;;;;;;6.82;100.00;101424.97;3531900;40;20057;-54
2021/05/29 02:20:53;;;;;;;9.73;7.55;;;;;;;6.79;100.00;101425.69;3532164;40;20059;-57
2021/05/29 02:23:26;;;;;;;11.82;7.88;;;;;;;6.80;100.00;101426.59;3530767;40;20141;-49
2021/05/29 02:25:55;;;;;;;9.98;7.90;;;;;;;6.82;100.00;101423.31;3532027;40;20047;-52
2021/05/29 02:28:23;;;;;;;10.70;7.43;;;;;;;6.72;100.00;101430.38;3532053;40;20065;-52
2021/05/29 02:30:51;;;;;;;11.68;8.00;;;;;;;6.56;100.00;101423.59;3532288;40;20043;-57
2021/05/29 02:33:19;;;;;;;12.13;8.45;;;;;;;6.33;100.00;101430.88;3532155;40;20058;-58
2021/05/29 02:35:47;;;;;;;10.45;8.60;;;;;;;6.35;100.00;101434.38;3532412;40;20047;-59
2021/05/29 02:38:14;;;;;;;11.05;7.75;;;;;;;6.63;100.00;101424.00;3532486;40;20075;-56
2021/05/29 02:40:42;;;;;;;11.10;8.15;;;;;;;6.59;100.00;101429.72;3532267;40;20061;-52
2021/05/29 02:43:09;;;;;;;11.98;7.93;;;;;;;6.73;100.00;101425.38;3532462;40;20096;-52
2021/05/29 02:45:39;;;;;;;9.10;7.75;;;;;;;6.96;100.00;101418.94;3532084;40;20412;-52
2021/05/29 02:48:12;;;;;;;11.95;7.75;;;;;;;6.72;100.00;101425.28;3532351;40;20050;-50
2021/05/29 02:50:40;;;;;;;13.98;7.82;;;;;;;6.50;100.00;101418.19;3532364;40;20082;-56
2021/05/29 02:53:08;;;;;;;10.05;7.60;;;;;;;6.36;100.00;101422.53;3531780;40;20061;-54
2021/05/29 02:55:36;;;;;;;11.60;8.18;;;;;;;6.50;100.00;101425.81;3532097;40;20053;-54
2021/05/29 02:58:04;;;;;;;13.65;8.30;;;;;;;6.55;100.00;101432.88;3523087;40;20391;-51
2021/05/29 03:00:35;;;;;;;8.88;7.43;;;;;;;6.56;100.00;101429.59;3532342;40;20091;-50
2021/05/29 03:03:03;;;;;;;9.48;7.28;;;;;;;6.61;100.00;101437.47;3529688;40;20058;-53
2021/05/29 03:05:31;;;;;;;11.15;7.88;;;;;;;6.64;100.00;101429.97;3531913;40;20062;-53
2021/05/29 03:07:58;;;;;;;12.82;8.20;;;;;;;6.58;100.00;101432.19;3535102;40;20090;-54
2021/05/29 03:10:25;;;;;;;12.70;7.53;;;;;;;6.77;100.00;101440.00;3538502;40;20083;-56
2021/05/29 03:12:53;;;;;;;10.65;7.68;;;;;;;6.94;100.00;101437.50;3534062;40;20082;-50
2021/05/29 03:15:26;;;;;;;11.75;7.90;;;;;;;6.71;100.00;101442.25;3532173;40;20343;-52
2021/05/29 03:17:54;;;;;;;11.23;8.10;;;;;;;6.64;100.00;101441.03;3531900;40;20084;-49
2021/05/29 03:20:25;;;;;;;12.02;8.27;;;;;;;6.53;100.00;101441.25;3532152;40;20156;-57
2021/05/29 03:22:53;;;;;;;11.55;8.60;;;;;;;6.54;100.00;101443.88;3531640;40;20064;-57
2021/05/29 03:25:20;;;;;;;15.43;8.38;;;;;;;6.66;100.00;101448.75;3531798;40;20083;-54
2021/05/29 03:27:50;;;;;;;13.32;8.77;;;;;;;6.55;100.00;101445.63;3532101;40;20051;-51
2021/05/29 03:30:19;;;;;;;11.68;8.40;;;;;;;6.57;100.00;101443.19;3532131;40;20065;-59
2021/05/29 03:32:46;;;;;;;11.70;8.25;;;;;;;6.71;100.00;101439.69;3531950;40;20087;-51
2021/05/29 03:35:14;;;;;;;9.88;7.45;;;;;;;6.86;100.00;101452.34;3532049;40;20514;-50
2021/05/29 03:37:41;;;;;;;9.98;8.15;;;;;;;6.87;100.00;101452.41;3531921;40;20031;-52
2021/05/29 03:40:11;;;;;;;11.50;7.93;;;;;;;6.83;100.00;101450.50;3531948;40;20051;-57
2021/05/29 03:42:39;;;;;;;11.38;7.68;;;;;;;7.07;100.00;101447.50;3532109;40;20387;-52
2021/05/29 03:45:14;;;;;;;9.18;8.02;;;;;;;7.03;100.00;101443.94;3532077;40;20703;-55
2021/05/29 03:47:42;;;;;;;10.85;8.18;;;;;;;6.87;100.00;101449.00;3521881;40;20047;-54
2021/05/29 03:50:11;;;;;;;11.52;8.27;;;;;;;7.01;100.00;101442.97;3531902;40;20087;-58
2021/05/29 03:52:41;;;;;;;12.32;8.82;;;;;;;7.10;100.00;101445.13;3531915;40;20086;-50
2021/05/29 03:55:14;;;;;;;11.45;7.97;;;;;;;7.18;100.00;101448.06;3532018;40;20317;-52
2021/05/29 03:57:41;;;;;;;10.52;7.72;;;;;;;7.26;100.00;101454.44;3531702;40;20047;-52
2021/05/29 04:00:11;;;;;;;11.07;8.45;;;;;;;7.51;100.00;101448.91;3532311;40;20050;-49
2021/05/29 04:02:39;;;;;;;12.32;8.20;;;;;;;7.40;100.00;101459.44;3531686;40;20051;-55
2021/05/29 04:05:08;;;;;;;11.95;8.02;;;;;;;7.69;100.00;101464.25;3531937;40;20131;-50
2021/05/29 04:07:37;;;;;;;10.05;7.80;;;;;;;7.54;100.00;101466.91;3531914;40;20043;-50
2021/05/29 04:10:07;;;;;;;10.98;8.63;;;;;;;7.49;100.00;101460.66;3531768;40;20054;-49
2021/05/29 04:12:34;;;;;;;13.80;8.85;;;;;;;7.57;100.00;101460.25;3531884;40;20069;-52
2021/05/29 04:15:01;;;;;;;11.93;8.27;;;;;;;8.03;100.00;101467.63;3521544;40;20570;-56
2021/05/29 04:17:28;;;;;;;11.98;8.98;;;;;;;7.94;100.00;101468.84;3523454;40;20047;-58
2021/05/29 04:19:55;;;;;;;13.75;9.10;;;;;;;8.00;100.00;101469.19;3527758;40;20091;-56
2021/05/29 04:22:22;;;;;;;12.73;8.63;;;;;;;8.06;100.00;101466.91;3531563;40;20065;-55
2021/05/29 04:24:49;;;;;;;12.93;9.35;;;;;;;8.01;100.00;101465.81;3531772;40;20056;-52
2021/05/29 04:27:18;;;;;;;13.95;9.77;;;;;;;8.47;100.00;101463.81;3531794;40;20139;-55
2021/05/29 04:29:46;;;;;;;13.75;9.75;;;;;;;8.35;100.00;101473.38;3531383;40;20067;-50
2021/05/29 04:32:13;;;;;;;13.45;9.57;;;;;;;8.53;100.00;101465.75;3531956;40;20065;-52
2021/05/29 04:34:40;;;;;;;13.43;9.20;;;;;;;8.33;100.00;101468.22;3531630;40;20564;-56
2021/05/29 04:37:07;;;;;;;12.07;8.82;;;;;;;8.27;100.00;101479.81;3531578;40;20054;-56
2021/05/29 04:39:34;;;;;;;11.07;8.77;;;;;;;8.26;100.00;101476.38;3531537;40;20055;-53
2021/05/29 04:42:01;;;;;;;11.65;8.02;;;;;;;8.49;100.00;101468.97;3531658;40;20066;-52
2021/05/29 04:44:28;;;;;;;15.80;8.38;;;;;;;8.53;100.00;101481.06;3531829;40;20091;-57
2021/05/29 04:47:00;;;;;;;9.07;7.88;;;;;;;8.59;100.00;101481.34;3532179;40;20320;-55
2021/05/29 04:49:29;;;;;;;9.90;7.38;;;;;;;8.95;100.00;101481.28;3531480;40;20065;-54
2021/05/29 04:51:57;;;;;;;12.18;8.05;;;;;;;9.18;100.00;101472.97;3531353;40;20082;-52
2021/05/29 04:54:26;;;;;;;10.95;6.93;;;;;;;9.14;100.00;101474.50;3531551;40;20082;-55
2021/05/29 04:56:53;;;;;;;11.80;7.95;;;;;;;9.34;100.00;101477.94;3531517;40;20434;-56
2021/05/29 04:59:20;;;;;;;10.02;7.38;;;;;;;9.38;100.00;101471.25;3531481;40;20116;-50
2021/05/29 05:01:47;;;;;;;12.68;8.68;;;;;;;9.32;100.00;101474.44;3531727;40;20384;-54
2021/05/29 05:04:15;;;;;;;10.77;8.27;;;;;;;9.31;100.00;101472.69;3531803;40;20086;-55
2021/05/29 05:06:43;;;;;;;11.50;8.55;;;;;;;9.41;100.00;101477.38;3531355;40;20097;-51
2021/05/29 05:09:10;;;;;;;12.05;8.20;;;;;;;9.35;100.00;101484.78;3531274;40;20059;-55
2021/05/29 05:11:38;;;;;;;13.10;8.05;;;;;;;9.72;100.00;101480.38;3530905;40;20094;-57
2021/05/29 05:14:05;;;;;;;12.68;8.50;;;;;;;10.00;100.00;101487.50;3530732;40;20051;-50
2021/05/29 05:16:32;;;;;;;11.93;9.02;;;;;;;10.05;100.00;101493.69;3531010;40;20074;-53
2021/05/29 05:18:59;;;;;;;15.65;9.73;;;;;;;9.91;100.00;101482.88;3531430;40;20102;-53
2021/05/29 05:21:26;;;;;;;13.32;10.45;;;;;;;10.15;100.00;101493.22;3531319;40;20054;-54
2021/05/29 05:23:54;;;;;;;15.52;10.45;;;;;;;10.12;100.00;101498.22;3531310;40;20053;-54
2021/05/29 05:26:22;;;;;;;16.60;10.68;;;;;;;10.38;100.00;101505.28;3531119;40;20053;-54
2021/05/29 05:28:49;;;;;;;19.58;12.43;;;;;;;10.35;100.00;101506.84;3531443;40;20069;-58
2021/05/29 05:31:16;;;;;;;16.48;12.23;;;;;;;10.28;100.00;101502.31;3531278;40;20355;-54
2021/05/29 05:33:45;;;;;;;18.45;12.63;;;;;;;10.10;100.00;101512.66;3530685;40;20043;-50
2021/05/29 05:36:13;;;;;;;25.15;14.85;;;;;;;10.06;100.00;101515.88;3531129;40;20348;-57
2021/05/29 05:38:45;;;;;;;23.17;15.15;;;;;;;10.44;100.00;101523.47;3531053;40;20062;-53
2021/05/29 05:41:12;;;;;;;24.33;15.90;;;;;;;10.21;100.00;101521.63;3531187;40;20069;-54
2021/05/29 05:43:40;;;;;;;27.17;17.80;;;;;;;10.05;100.00;101525.25;3531039;40;20292;-54
2021/05/29 05:46:10;;;;;;;30.13;19.35;;;;;;;10.23;100.00;101530.25;3530725;40;20433;-52
2021/05/29 05:48:37;;;;;;;31.42;19.77;;;;;;;10.21;100.00;101508.81;3530918;40;20047;-54
2021/05/29 05:51:05;;;;;;;33.08;20.52;;;;;;;10.00;100.00;101531.88;3530772;40;20051;-51
2021/05/29 05:53:32;;;;;;;34.55;20.00;;;;;;;9.83;100.00;101532.84;3530819;40;20065;-54
2021/05/29 05:56:04;;;;;;;33.88;19.55;;;;;;;9.66;100.00;101521.91;3530646;40;20061;-49
2021/05/29 05:58:34;;;;;;;29.75;19.08;;;;;;;10.09;100.00;101531.38;3530872;40;20059;-52
2021/05/29 06:01:03;;;;;;;31.75;19.50;;;;;;;10.34;100.00;101534.13;3531032;40;20095;-52
2021/05/29 06:03:30;;;;;;;29.10;20.13;;;;;;;10.31;100.00;101534.03;3531163;40;20055;-53
2021/05/29 06:05:58;;;;;;;33.08;22.20;;;;;;;10.04;100.00;101535.44;3529522;40;20061;-49
2021/05/29 06:08:25;;;;;;;32.28;22.98;;;;;;;10.39;100.00;101545.44;3532505;40;20106;-52
2021/05/29 06:10:52;;;;;;;34.85;23.30;;;;;;;10.25;99.54;101536.31;3532103;40;20151;-50
2021/05/29 06:21:43;;;;;;;28.73;19.25;;;;;;;10.81;95.69;101558.19;3532987;40;20113;-55
2021/05/29 06:24:11;;;;;;;27.05;20.10;;;;;;;11.13;95.08;101561.97;3532453;40;20062;-58
2021/05/29 06:26:38;;;;;;;27.85;19.05;;;;;;;11.52;92.80;101563.38;3532212;40;20056;-58
2021/05/29 06:29:05;;;;;;;27.35;18.92;;;;;;;11.36;93.96;101562.81;3532285;40;20050;-55
2021/05/29 06:31:32;;;;;;;24.23;16.95;;;;;;;11.39;92.47;101560.38;3532692;40;20389;-52
2021/05/29 06:34:00;;;;;;;22.10;15.63;;;;;;;11.56;91.83;101565.25;3532584;40;20437;-50
2021/05/29 06:36:27;;;;;;;25.77;17.00;;;;;;;11.66;90.17;101569.88;3532322;40;20417;-54
2021/05/29 06:38:54;;;;;;;25.55;17.25;;;;;;;10.89;93.58;101577.28;3532425;40;20049;-56
2021/05/29 06:41:23;;;;;;;27.15;17.05;;;;;;;10.87;93.30;101575.50;3532504;40;20067;-51
2021/05/29 06:43:51;;;;;;;25.60;17.15;;;;;;;11.15;93.14;101569.72;3532200;40;20110;-51
2021/05/29 06:46:18;;;;;;;25.73;18.30;;;;;;;11.36;91.28;101574.75;3529342;40;20128;-52
2021/05/29 06:48:46;;;;;;;27.48;18.05;;;;;;;11.02;93.11;101581.22;3529063;40;20072;-54
2021/05/29 06:51:22;;;;;;;28.75;18.73;;;;;;;11.37;91.95;101581.63;3544248;40;20059;-57
2021/05/29 06:53:51;;;;;;;25.63;18.40;;;;;;;11.16;93.04;101581.72;3532165;40;20059;-53
2021/05/29 06:59:05;;;;;;;25.27;17.30;;;;;;;11.63;91.84;101583.47;3527513;40;20065;-54
2021/05/29 07:01:33;;;;;;;22.67;16.35;;;;;;;11.78;90.50;101577.97;3527095;40;20071;-50
2021/05/29 07:04:00;;;;;;;22.88;16.10;;;;;;;11.61;89.97;101579.97;3528013;40;20031;-60
2021/05/29 07:06:27;;;;;;;21.27;15.80;;;;;;;11.10;92.75;101581.50;3526211;40;20059;-55
2021/05/29 07:08:57;;;;;;;21.58;14.38;;;;;;;10.85;95.22;101585.66;3527884;40;20061;-56
2021/05/29 07:11:24;;;;;;;21.80;14.45;;;;;;;11.33;94.73;101580.69;3526608;40;20091;-56
2021/05/29 07:13:51;;;;;;;20.38;16.35;;;;;;;11.58;91.89;101587.56;3527945;40;20054;-57
2021/05/29 07:16:22;;;;;;;19.65;13.80;;;;;;;11.59;90.53;101581.59;3517296;40;20067;-55
2021/05/29 07:18:49;;;;;;;18.25;13.10;;;;;;;11.81;89.23;101580.66;3528200;40;20047;-57
2021/05/29 07:21:18;;;;;;;21.27;14.50;;;;;;;11.76;89.72;101579.63;3527014;40;20055;-50
2021/05/29 07:23:45;;;;;;;19.58;14.48;;;;;;;11.62;90.50;101576.59;3527943;40;20047;-55
2021/05/29 07:26:13;;;;;;;23.25;15.45;;;;;;;11.83;89.84;101589.34;3529321;40;20077;-54
2021/05/29 07:28:40;;;;;;;21.27;13.80;;;;;;;12.02;89.20;101592.53;3527746;40;20048;-57
2021/05/29 07:31:08;;;;;;;20.55;14.23;;;;;;;11.86;90.08;101592.00;3526801;40;20078;-56
2021/05/29 07:33:35;;;;;;;19.30;13.93;;;;;;;11.87;89.55;101598.88;3527455;40;20055;-55
2021/05/29 07:36:03;;;;;;;19.70;14.25;;;;;;;11.76;90.08;101597.59;3529026;40;20054;-54
2021/05/29 07:38:30;;;;;;;18.02;13.63;;;;;;;12.09;88.78;101594.50;3526751;40;20099;-54
2021/05/29 07:40:57;;;;;;;20.55;13.75;;;;;;;12.33;87.45;101591.88;3527771;40;20087;-58
2021/05/29 07:43:24;;;;;;;23.75;16.15;;;;;;;12.54;85.84;101599.41;3526312;40;20087;-56
2021/05/29 07:45:52;;;;;;;29.60;20.00;;;;;;;12.42;87.50;101598.16;3527831;40;20051;-53
2021/05/29 07:48:19;;;;;;;29.73;20.63;;;;;;;12.27;87.34;101597.69;3526606;40;20071;-52
2021/05/29 07:51:04;;;;;;;32.47;20.35;;;;;;;12.71;86.08;101609.41;3527976;40;20077;-50
2021/05/29 07:53:37;;;;;;;31.25;20.95;;;;;;;12.57;87.12;101608.09;3526899;40;20518;-57
2021/05/29 07:56:09;;;;;;;30.88;22.00;;;;;;;13.11;84.99;101608.03;3528403;40;20043;-57
2021/05/29 07:58:37;;;;;;;28.58;19.42;;;;;;;12.93;84.09;101603.22;3527085;40;20091;-52
2021/05/29 08:01:04;;;;;;;28.95;19.83;;;;;;;13.04;84.05;101597.56;3528096;40;20047;-54
2021/05/29 08:03:31;;;;;;;26.85;19.30;;;;;;;13.44;82.83;101595.31;3526379;40;20051;-52
2021/05/29 08:06:02;;;;;;;27.70;18.45;;;;;;;13.87;83.49;101606.81;3527695;40;20061;-52
2021/05/29 08:08:29;;;;;;;22.95;17.05;;;;;;;14.82;77.19;101598.91;3526189;40;20788;-53
2021/05/29 08:11:04;;;;;;;20.23;16.20;;;;;;;14.77;75.04;101605.66;3526969;40;20346;-52
2021/05/29 08:13:40;;;;;;;25.05;16.45;;;;;;;14.90;73.16;101597.38;3526883;40;20055;-55
2021/05/29 08:16:07;;;;;;;16.77;14.07;;;;;;;15.64;70.41;101604.13;3526743;40;20081;-55
2021/05/29 08:18:35;;;;;;;16.80;13.30;;;;;;;15.79;72.74;101601.81;3525818;40;20603;-53
2021/05/29 08:21:02;;;;;;;16.92;12.35;;;;;;;15.88;68.41;101606.28;3527031;40;20083;-52
2021/05/29 08:23:29;;;;;;;17.67;11.02;;;;;;;15.86;68.00;101603.69;3526137;40;20072;-51
2021/05/29 08:25:57;;;;;;;17.58;11.75;;;;;;;16.07;68.38;101600.59;3527566;40;20053;-55
2021/05/29 08:28:24;;;;;;;20.25;12.90;;;;;;;15.33;67.44;101600.88;3526715;40;20054;-56
2021/05/29 08:30:51;;;;;;;17.55;12.45;;;;;;;15.13;68.10;101594.44;3528256;40;20425;-55
2021/05/29 08:33:19;;;;;;;19.55;12.85;;;;;;;14.85;71.06;101585.22;3529197;40;20493;-55
2021/05/29 08:35:46;;;;;;;30.88;13.52;;;;;;;15.53;73.26;101604.75;3529688;40;20055;-55
2021/05/29 08:38:14;;;;;;;20.08;11.05;;;;;;;15.57;70.42;101597.03;3530080;40;20117;-55
2021/05/29 08:40:41;;;;;;;17.17;11.55;;;;;;;15.62;69.83;101606.66;3528311;40;20063;-50
2021/05/29 08:43:09;;;;;;;15.45;11.15;;;;;;;16.23;68.63;101601.75;3531536;40;20054;-53
2021/05/29 08:45:37;;;;;;;21.75;11.55;;;;;;;16.16;67.08;101613.69;3530534;40;20066;-57
2021/05/29 08:48:04;;;;;;;12.98;9.95;;;;;;;16.34;66.52;101610.56;3531339;40;20121;-57
2021/05/29 08:50:33;;;;;;;13.38;9.55;;;;;;;15.76;66.93;101604.34;3531807;40;20330;-51
2021/05/29 08:53:00;;;;;;;12.50;8.77;;;;;;;15.63;66.87;101599.75;3528567;40;20349;-51
2021/05/29 08:55:27;;;;;;;10.73;8.30;;;;;;;15.81;65.60;101595.00;3529316;40;20063;-55
2021/05/29 08:57:54;;;;;;;11.73;9.23;;;;;;;16.00;66.37;101593.59;3531151;40;20053;-51
2021/05/29 09:00:26;;;;;;;15.57;7.93;;;;;;;15.91;66.97;101594.31;3529610;40;20054;-57
2021/05/29 09:03:01;;;;;;;12.15;8.15;;;;;;;16.41;64.93;101602.06;3531106;40;20062;-53
2021/05/29 09:05:49;;;;;;;13.60;7.80;;;;;;;16.62;65.54;101598.94;3531534;40;20101;-57
2021/05/29 09:08:18;;;;;;;11.70;7.32;;;;;;;16.70;65.60;101599.94;3529732;40;20391;-51
2021/05/29 09:10:53;;;;;;;12.07;8.27;;;;;;;17.51;65.51;101598.44;3530583;40;20083;-57
2021/05/29 09:13:25;;;;;;;7.85;6.57;;;;;;;17.40;64.11;101601.78;3530983;40;20043;-50
2021/05/29 09:15:58;;;;;;;12.20;7.45;;;;;;;17.64;60.06;101599.47;3530758;40;20065;-51
2021/05/29 09:18:28;;;;;;;10.50;6.60;;;;;;;18.01;60.59;101592.97;3526003;40;20059;-55
2021/05/29 09:21:25;;;;;;;11.52;5.82;;;;;;;18.34;59.60;101601.91;3525718;40;20059;-57
2021/05/29 09:23:58;;;;;;;9.57;6.68;;;;;;;18.00;59.15;101593.84;3529121;40;20117;-51
2021/05/29 09:26:52;;;;;;;12.63;6.70;;;;;;;18.91;58.45;101602.38;3527305;40;20069;-59
2021/05/29 09:29:28;;;;;;;11.88;6.85;;;;;;;19.48;56.15;101604.38;3533614;40;20062;-54
2021/05/29 09:31:57;;;;;;;9.02;6.50;;;;;;;19.21;54.93;101609.44;3528819;40;20050;-57
2021/05/29 09:34:46;;;;;;;12.70;6.50;;;;;;;19.70;55.24;101597.53;3524892;40;20051;-54
2021/05/29 09:37:49;;;;;;;9.73;6.43;;;;;;;18.33;55.66;101602.78;3525987;40;20474;-53
2021/05/29 09:40:20;;;;;;;9.03;5.97;;;;;;;18.82;56.60;101605.78;3528614;40;20059;-58
2021/05/29 09:42:48;;;;;;;10.07;5.80;;;;;;;19.42;54.48;101606.09;3528612;40;20066;-52
2021/05/29 09:45:25;;;;;;;9.65;6.05;;;;;;;18.81;53.16;101602.31;3527772;40;20065;-56
2021/05/29 09:48:12;;;;;;;7.72;5.38;;;;;;;19.46;52.02;101602.59;3528660;40;20086;-50
2021/05/29 09:51:00;;;;;;;7.47;6.03;;;;;;;19.76;52.29;101607.09;3528716;40;20081;-50
2021/05/29 09:53:32;;;;;;;5.90;5.18;;;;;;;19.94;51.36;101601.06;3526416;40;20066;-51
2021/05/29 09:55:59;;;;;;;9.75;6.45;;;;;;;19.38;52.62;101597.41;3526829;40;21170;-54
2021/05/29 09:58:52;;;;;;;8.98;5.65;;;;;;;19.53;51.31;101604.38;3527247;40;20070;-51
2021/05/29 10:01:44;;;;;;;12.40;6.15;;;;;;;18.53;54.60;101596.03;3526790;40;20039;-55
2021/05/29 10:04:38;;;;;;;10.45;6.55;;;;;;;19.08;54.67;101596.38;3526240;40;20210;-56
2021/05/29 10:07:12;;;;;;;9.18;5.82;;;;;;;19.79;51.88;101596.69;3528880;40;20098;-55
2021/05/29 10:09:42;;;;;;;8.85;6.28;;;;;;;19.05;52.40;101601.59;3528092;40;20114;-59
2021/05/29 10:12:10;;;;;;;9.85;6.45;;;;;;;19.76;53.06;101600.16;3528598;40;20078;-53
2021/05/29 10:14:38;;;;;;;7.75;6.10;;;;;;;19.61;51.82;101600.13;3527788;40;20063;-49
2021/05/29 10:17:09;;;;;;;9.52;6.32;;;;;;;19.83;52.00;101606.25;3527704;40;20409;-51
2021/05/29 10:19:39;;;;;;;9.18;5.88;;;;;;;19.88;50.97;101606.25;3527344;40;20099;-52
2021/05/29 10:22:16;;;;;;;8.52;7.03;;;;;;;19.88;50.87;101606.25;3527499;40;20081;-53
2021/05/29 10:25:09;;;;;;;9.88;6.07;;;;;;;19.22;55.15;101601.66;3527970;40;20066;-55
2021/05/29 10:27:42;;;;;;;10.27;6.75;;;;;;;18.83;53.28;101594.53;3527198;40;20064;-55
2021/05/29 10:30:12;;;;;;;8.40;6.32;;;;;;;17.98;55.34;101589.47;3526209;40;20861;-54
2021/05/29 10:32:41;;;;;;;7.50;6.50;;;;;;;18.00;56.79;101588.66;3527256;40;20059;-58
2021/05/29 10:35:31;;;;;;;10.48;7.10;;;;;;;17.99;56.78;101586.06;3526524;40;20059;-54
2021/05/29 10:37:58;;;;;;;11.63;6.53;;;;;;;17.79;57.57;101588.44;3526015;40;20062;-54
2021/05/29 10:40:33;;;;;;;9.18;6.45;;;;;;;19.16;54.39;101596.44;3526669;40;20528;-51
2021/05/29 10:43:05;;;;;;;9.95;5.97;;;;;;;21.17;47.24;101592.31;3527228;40;20039;-48
2021/05/29 10:45:39;;;;;;;8.43;6.50;;;;;;;22.06;44.81;101594.44;3526589;40;20062;-54
2021/05/29 10:48:12;;;;;;;8.95;5.47;;;;;;;22.16;45.58;101588.31;3526371;40;20107;-54
2021/05/29 10:51:00;;;;;;;9.68;6.03;;;;;;;21.33;45.46;101583.56;3526504;40;20132;-55
2021/05/29 10:53:37;;;;;;;6.93;5.65;;;;;;;23.74;41.96;101591.84;3526500;40;20043;-54
2021/05/29 10:56:16;;;;;;;10.13;6.00;;;;;;;23.32;40.31;101597.59;3525835;40;20059;-54
2021/05/29 10:59:24;;;;;;;14.02;6.07;;;;;;;22.06;43.63;101582.28;3526212;40;20058;-53
2021/05/29 11:01:54;;;;;;;9.02;5.93;;;;;;;21.95;44.41;101589.28;3525556;40;20637;-51
2021/05/29 11:04:25;;;;;;;10.55;6.40;;;;;;;21.58;46.12;101584.34;3528608;40;20145;-53
2021/05/29 11:06:59;;;;;;;8.30;6.63;;;;;;;23.87;41.60;101583.78;3532164;40;20487;-58
2021/05/29 11:09:26;;;;;;;8.45;6.10;;;;;;;25.37;37.57;101582.84;3532022;40;20058;-56
2021/05/29 11:11:55;;;;;;;7.95;5.75;;;;;;;25.13;39.09;101589.47;3527910;40;20082;-56
2021/05/29 11:14:51;;;;;;;8.68;6.40;;;;;;;23.17;40.94;101579.50;3526990;40;20058;-50
2021/05/29 11:17:21;;;;;;;7.93;6.28;;;;;;;22.00;43.30;101576.22;3526041;40;20055;-53
2021/05/29 11:20:11;;;;;;;6.60;5.85;;;;;;;24.42;39.21;101587.28;3527561;40;20059;-53
2021/05/29 11:22:44;;;;;;;8.45;6.32;;;;;;;26.32;35.96;101596.41;3528488;40;20072;-53
2021/05/29 11:25:15;;;;;;;7.78;5.95;;;;;;;23.83;39.56;101597.78;3526706;40;20086;-59
2021/05/29 11:27:44;;;;;;;9.18;5.72;;;;;;;25.63;37.32;101598.00;3526721;40;20050;-57
2021/05/29 11:30:15;;;;;;;8.68;5.72;;;;;;;26.02;36.26;101592.75;3526613;40;20422;-56
2021/05/29 11:32:48;;;;;;;6.00;5.00;;;;;;;27.54;34.25;101587.75;3526426;40;20059;-57
2021/05/29 11:35:22;;;;;;;9.57;6.72;;;;;;;25.45;36.59;101590.56;3525437;40;20417;-56
2021/05/29 11:38:10;;;;;;;7.97;6.22;;;;;;;22.46;41.80;101586.31;3527286;40;20059;-52
2021/05/29 11:40:54;;;;;;;10.95;6.32;;;;;;;22.27;43.22;101581.25;3531360;40;20050;-55
2021/05/29 11:43:39;;;;;;;7.03;6.32;;;;;;;24.28;38.89;101584.88;3531062;40;20743;-53